Time;durP1;ratioP1;P1;durP2;ratioP2;P2;SDS_P1;SDS_P2;PMS_P1;PMS_P2;Temp;Humidity;BMP_temperature;BMP_pressure;BME280_temperature;BME280_humidity;BME280_pressure;Samples;Min_cycle;Max_cycle;Signal;HPM_P1;HPM_P2
2021/01/20 20:16:16;;;;;;;29.48;13.63;;;;;;;;;;5067241;28;20340;-67
2021/01/20 20:18:42;;;;;;;24.30;11.95;;;;;;;;;;5056566;28;20029;-66
2021/01/20 20:21:08;;;;;;;28.55;13.13;;;;;;;;;;5049993;28;20040;-67
2021/01/20 20:23:34;;;;;;;24.48;12.35;;;;;;;;;;5057284;28;20028;-69
2021/01/20 20:26:00;;;;;;;25.80;13.07;;;;;;;;;;5049493;28;20029;-69
2021/01/20 20:28:26;;;;;;;29.48;15.07;;;;;;;;;;5055437;28;20461;-66
2021/01/20 20:30:53;;;;;;;28.92;13.98;;;;;;;;;;5055148;28;20063;-66
2021/01/20 20:33:21;;;;;;;20.85;11.00;;;;;;;;;;5059092;28;20070;-66
2021/01/20 20:35:49;;;;;;;19.80;10.40;;;;;;;;;;5058723;28;20123;-67
2021/01/20 20:38:15;;;;;;;21.83;11.70;;;;;;;;;;5059826;28;20467;-66
2021/01/20 20:40:41;;;;;;;21.73;11.48;;;;;;;;;;5060335;28;20025;-66
2021/01/20 20:43:07;;;;;;;23.42;12.13;;;;;;;;;;5066963;28;20029;-65
2021/01/20 20:45:33;;;;;;;21.63;11.20;;;;;;;;;;5069445;28;20486;-65
2021/01/20 20:47:59;;;;;;;20.65;10.40;;;;;;;;;;5069666;28;20119;-66
2021/01/20 20:50:25;;;;;;;22.10;10.82;;;;;;;;;;5069870;28;20028;-65
2021/01/20 20:52:51;;;;;;;19.73;10.63;;;;;;;;;;5069714;28;20025;-65
2021/01/20 20:55:17;;;;;;;22.10;10.82;;;;;;;;;;5069031;28;20024;-65
2021/01/20 20:57:43;;;;;;;23.25;10.57;;;;;;;;;;5059440;28;20103;-67
2021/01/20 21:00:10;;;;;;;22.42;10.27;;;;;;;;;;5059045;28;20558;-66
2021/01/20 21:02:39;;;;;;;21.45;9.93;;;;;;;;;;5057746;28;20020;-66
2021/01/20 21:05:05;;;;;;;15.65;9.07;;;;;;;;;;5059770;28;20032;-66
2021/01/20 21:07:32;;;;;;;18.17;9.85;;;;;;;;;;5057854;28;20097;-65
2021/01/20 21:09:58;;;;;;;16.42;9.82;;;;;;;;;;5055662;28;20013;-66
2021/01/20 21:12:24;;;;;;;21.67;10.68;;;;;;;;;;5049247;28;20033;-66
2021/01/20 21:14:50;;;;;;;26.88;14.05;;;;;;;;;;5050229;28;20068;-65
2021/01/20 21:17:16;;;;;;;24.13;12.43;;;;;;;;;;5053172;28;20025;-66
2021/01/20 21:19:42;;;;;;;25.35;12.98;;;;;;;;;;5059583;28;20044;-67
2021/01/20 21:22:08;;;;;;;22.50;12.52;;;;;;;;;;5059068;28;20428;-66
2021/01/20 21:24:36;;;;;;;19.08;11.02;;;;;;;;;;5057611;28;20029;-66
2021/01/20 21:27:02;;;;;;;21.85;11.70;;;;;;;;;;5048835;28;20044;-65
2021/01/20 21:29:28;;;;;;;22.33;11.73;;;;;;;;;;5045606;28;20457;-66
2021/01/20 21:31:54;;;;;;;24.27;13.25;;;;;;;;;;5044360;28;20076;-65
2021/01/20 21:34:20;;;;;;;21.08;11.93;;;;;;;;;;5044199;28;20034;-65
2021/01/20 21:36:47;;;;;;;19.27;10.60;;;;;;;;;;5045112;28;20025;-66
2021/01/20 21:39:13;;;;;;;18.45;10.60;;;;;;;;;;5046396;28;20503;-65
2021/01/20 21:41:39;;;;;;;22.75;13.15;;;;;;;;;;5041182;28;20017;-66
2021/01/20 21:44:06;;;;;;;34.33;18.15;;;;;;;;;;5045539;28;20075;-69
2021/01/20 21:46:32;;;;;;;56.13;28.83;;;;;;;;;;5043627;28;20033;-66
2021/01/20 21:48:58;;;;;;;52.70;26.70;;;;;;;;;;5043540;28;20025;-65
2021/01/20 21:51:24;;;;;;;53.55;26.40;;;;;;;;;;5045252;28;20028;-66
2021/01/20 21:53:50;;;;;;;52.30;26.45;;;;;;;;;;5044605;28;20033;-66
2021/01/20 21:56:16;;;;;;;43.63;21.83;;;;;;;;;;5044460;28;20025;-67
2021/01/20 21:58:43;;;;;;;41.38;21.77;;;;;;;;;;5044733;28;20017;-64
2021/01/20 22:01:10;;;;;;;40.78;21.88;;;;;;;;;;5045292;28;20025;-65
2021/01/20 22:03:36;;;;;;;39.60;21.02;;;;;;;;;;5044185;28;20017;-66
2021/01/20 22:06:03;;;;;;;34.45;17.77;;;;;;;;;;5045904;28;20472;-66
2021/01/20 22:08:29;;;;;;;44.20;21.17;;;;;;;;;;5038598;28;20033;-66
2021/01/20 22:10:55;;;;;;;56.10;26.05;;;;;;;;;;5033941;28;20029;-66
2021/01/20 22:13:22;;;;;;;62.22;29.92;;;;;;;;;;5035475;28;20018;-66
2021/01/20 22:15:48;;;;;;;69.32;32.00;;;;;;;;;;5034544;28;20073;-65
2021/01/20 22:18:14;;;;;;;74.30;34.90;;;;;;;;;;5035235;28;20034;-65
2021/01/20 22:20:40;;;;;;;73.78;36.28;;;;;;;;;;5034860;28;20580;-65
2021/01/20 22:23:06;;;;;;;67.72;33.55;;;;;;;;;;5034565;28;20029;-65
2021/01/20 22:25:32;;;;;;;67.75;33.85;;;;;;;;;;5034686;28;20029;-65
2021/01/20 22:27:58;;;;;;;60.85;30.52;;;;;;;;;;5035192;28;20469;-65
2021/01/20 22:30:24;;;;;;;67.03;33.80;;;;;;;;;;5034152;28;20388;-64
2021/01/20 22:32:50;;;;;;;66.82;34.03;;;;;;;;;;5034359;28;20100;-65
2021/01/20 22:35:16;;;;;;;57.85;28.70;;;;;;;;;;5035013;28;20026;-65
2021/01/20 22:37:42;;;;;;;50.85;27.20;;;;;;;;;;5032869;28;20606;-66
2021/01/20 22:40:10;;;;;;;51.33;25.55;;;;;;;;;;5033940;28;20420;-66
2021/01/20 22:42:37;;;;;;;46.78;23.83;;;;;;;;;;5034480;28;20036;-63
2021/01/20 22:45:03;;;;;;;49.88;25.52;;;;;;;;;;5034204;28;20045;-64
2021/01/20 22:47:29;;;;;;;43.90;21.80;;;;;;;;;;5034142;28;20033;-64
2021/01/20 22:49:55;;;;;;;33.20;17.33;;;;;;;;;;5042581;28;20031;-64
2021/01/20 22:52:21;;;;;;;31.98;15.27;;;;;;;;;;5050853;28;20424;-65
2021/01/20 22:54:47;;;;;;;28.45;14.82;;;;;;;;;;5054107;28;20025;-65
2021/01/20 22:57:13;;;;;;;28.83;14.32;;;;;;;;;;5053785;28;20071;-65
2021/01/20 22:59:39;;;;;;;28.23;13.27;;;;;;;;;;5048779;28;20031;-66
2021/01/20 23:02:06;;;;;;;39.20;17.50;;;;;;;;;;5032109;28;20446;-65
2021/01/20 23:04:32;;;;;;;33.88;14.63;;;;;;;;;;5032500;28;20053;-66
2021/01/20 23:06:58;;;;;;;22.92;10.95;;;;;;;;;;5032922;28;20437;-66
2021/01/20 23:09:26;;;;;;;27.63;11.60;;;;;;;;;;5032069;28;20029;-64
2021/01/20 23:11:52;;;;;;;65.15;26.48;;;;;;;;;;5034681;28;20081;-65
2021/01/20 23:14:18;;;;;;;35.55;15.82;;;;;;;;;;5051506;28;20053;-65
2021/01/20 23:16:44;;;;;;;22.10;10.50;;;;;;;;;;5051812;28;20037;-65
2021/01/20 23:19:11;;;;;;;21.10;9.07;;;;;;;;;;5046339;28;20029;-65
2021/01/20 23:21:38;;;;;;;21.95;10.20;;;;;;;;;;5050457;28;20526;-64
2021/01/20 23:24:05;;;;;;;19.88;9.38;;;;;;;;;;5051631;28;20106;-65
2021/01/20 23:26:31;;;;;;;19.23;8.80;;;;;;;;;;5052093;28;20099;-65
2021/01/20 23:28:57;;;;;;;19.63;9.57;;;;;;;;;;5052227;28;20491;-66
2021/01/20 23:31:23;;;;;;;49.92;21.25;;;;;;;;;;5051939;28;20053;-65
2021/01/20 23:33:49;;;;;;;15.70;7.38;;;;;;;;;;5051857;28;20044;-65
2021/01/20 23:36:15;;;;;;;24.48;11.55;;;;;;;;;;5052091;28;20025;-65
2021/01/20 23:38:42;;;;;;;13.73;6.90;;;;;;;;;;5052066;28;20017;-65
2021/01/20 23:41:08;;;;;;;15.25;7.32;;;;;;;;;;5051387;28;20421;-65
2021/01/20 23:43:34;;;;;;;12.02;6.28;;;;;;;;;;5053631;28;20040;-64
2021/01/20 23:46:00;;;;;;;17.70;8.00;;;;;;;;;;5054184;28;20025;-65
2021/01/20 23:48:26;;;;;;;10.13;5.80;;;;;;;;;;5053526;28;20029;-65
2021/01/20 23:50:52;;;;;;;10.05;5.22;;;;;;;;;;5053631;28;20025;-65
2021/01/20 23:53:18;;;;;;;8.73;5.13;;;;;;;;;;5053202;28;20476;-64
2021/01/20 23:55:45;;;;;;;8.48;4.78;;;;;;;;;;5053405;28;20400;-64
2021/01/20 23:58:11;;;;;;;8.50;4.57;;;;;;;;;;5053711;28;20029;-65
